Time;durP1;ratioP1;P1;durP2;ratioP2;P2;SDS_P1;SDS_P2;PMS_P1;PMS_P2;Temp;Humidity;BMP_temperature;BMP_pressure;BME280_temperature;BME280_humidity;BME280_pressure;Samples;Min_cycle;Max_cycle;Signal;HPM_P1;HPM_P2
2023/01/10 00:00:01;;;;;;;40.28;17.50;;;;;;;;;;12835088;19;20351;-65
2023/01/10 00:04:19;;;;;;;33.85;16.42;;;;;;;;;;12833087;19;20036;-67
2023/01/10 00:08:36;;;;;;;31.00;14.52;;;;;;;;;;12834005;19;20049;-66
2023/01/10 00:17:30;;;;;;;27.65;13.52;;;;;;;;;;12845689;19;20470;-65
2023/01/10 00:21:48;;;;;;;22.97;12.77;;;;;;;;;;12846873;19;20363;-67
2023/01/10 00:26:06;;;;;;;18.05;10.27;;;;;;;;;;12846554;19;20395;-67
2023/01/10 00:30:24;;;;;;;21.98;11.45;;;;;;;;;;12843432;19;20372;-65
2023/01/10 00:34:41;;;;;;;20.83;11.40;;;;;;;;;;12845551;19;20306;-65
2023/01/10 00:38:59;;;;;;;19.35;10.85;;;;;;;;;;12845385;19;20353;-65
2023/01/10 00:47:54;;;;;;;19.13;11.07;;;;;;;;;;12845152;19;20465;-65
2023/01/10 00:52:12;;;;;;;18.63;10.13;;;;;;;;;;12843685;19;20710;-65
2023/01/10 00:56:30;;;;;;;20.10;9.88;;;;;;;;;;12844603;19;20464;-66
2023/01/10 01:00:48;;;;;;;21.27;11.32;;;;;;;;;;12843401;19;20519;-66
2023/01/10 01:05:07;;;;;;;17.95;9.57;;;;;;;;;;12845297;19;20014;-67
2023/01/10 01:09:24;;;;;;;17.02;9.88;;;;;;;;;;12844684;19;20444;-66
2023/01/10 01:13:42;;;;;;;20.90;10.53;;;;;;;;;;12842867;19;20458;-66
2023/01/10 01:18:00;;;;;;;21.17;11.45;;;;;;;;;;12843055;19;20388;-65
2023/01/10 01:22:18;;;;;;;19.77;11.65;;;;;;;;;;12843920;19;20427;-66
2023/01/10 01:26:36;;;;;;;14.55;8.43;;;;;;;;;;12840216;19;20350;-66
2023/01/10 01:30:54;;;;;;;22.33;11.50;;;;;;;;;;12842574;19;20031;-66
2023/01/10 01:35:15;;;;;;;20.67;11.47;;;;;;;;;;12841404;19;20464;-66
2023/01/10 01:39:32;;;;;;;21.92;11.13;;;;;;;;;;12841901;19;20355;-66
2023/01/10 01:44:15;;;;;;;22.83;11.88;;;;;;;;;;12840942;19;20485;-66
2023/01/10 01:48:40;;;;;;;20.45;11.68;;;;;;;;;;12840924;19;20471;-66
2023/01/10 01:53:01;;;;;;;22.80;12.13;;;;;;;;;;12841532;19;20384;-67
2023/01/10 01:57:22;;;;;;;22.52;11.50;;;;;;;;;;12838451;19;20018;-66
2023/01/10 02:01:45;;;;;;;23.65;12.02;;;;;;;;;;12840900;19;20350;-67
2023/01/10 02:06:03;;;;;;;23.58;11.43;;;;;;;;;;12839191;19;20081;-66
2023/01/10 02:10:47;;;;;;;16.58;10.15;;;;;;;;;;12840713;19;20082;-66
2023/01/10 02:15:05;;;;;;;20.75;10.52;;;;;;;;;;12837026;19;20323;-66
2023/01/10 02:19:37;;;;;;;21.27;10.23;;;;;;;;;;12838896;19;20414;-66
2023/01/10 02:24:35;;;;;;;19.67;11.00;;;;;;;;;;12840528;19;20497;-66
2023/01/10 02:29:24;;;;;;;20.08;11.05;;;;;;;;;;12838224;19;20379;-67
2023/01/10 02:34:03;;;;;;;13.43;8.95;;;;;;;;;;12838810;19;20129;-66
2023/01/10 02:38:31;;;;;;;15.63;10.32;;;;;;;;;;12837015;19;20325;-66
2023/01/10 02:42:59;;;;;;;19.83;10.97;;;;;;;;;;12837322;19;20027;-66
2023/01/10 02:47:18;;;;;;;19.75;11.50;;;;;;;;;;12836684;19;20014;-66
2023/01/10 02:51:35;;;;;;;19.63;10.95;;;;;;;;;;12838609;19;20453;-67
2023/01/10 02:56:11;;;;;;;21.10;10.47;;;;;;;;;;12838224;19;20639;-66
2023/01/10 03:00:47;;;;;;;21.33;10.35;;;;;;;;;;12837952;19;20383;-65
2023/01/10 03:05:45;;;;;;;17.40;9.30;;;;;;;;;;12837692;19;20011;-67
2023/01/10 03:10:08;;;;;;;10.50;7.10;;;;;;;;;;12837178;19;20453;-66
2023/01/10 03:14:28;;;;;;;7.93;5.45;;;;;;;;;;12834368;19;20399;-67
2023/01/10 03:19:03;;;;;;;11.10;5.50;;;;;;;;;;12835240;19;20022;-66
2023/01/10 03:23:22;;;;;;;7.32;4.35;;;;;;;;;;12835575;19;20438;-67
2023/01/10 03:28:12;;;;;;;11.40;4.07;;;;;;;;;;12835611;19;20480;-66
2023/01/10 03:32:31;;;;;;;9.75;6.25;;;;;;;;;;12836245;19;20497;-66
2023/01/10 03:37:06;;;;;;;12.65;6.30;;;;;;;;;;12837397;19;20521;-66
2023/01/10 03:41:39;;;;;;;13.40;5.50;;;;;;;;;;12835548;19;20426;-66
2023/01/10 03:46:07;;;;;;;13.95;6.35;;;;;;;;;;12834280;19;20485;-66
2023/01/10 03:50:27;;;;;;;8.90;5.15;;;;;;;;;;12846019;19;20493;-66
2023/01/10 03:54:46;;;;;;;9.35;5.60;;;;;;;;;;12847384;19;20445;-65
2023/01/10 03:59:04;;;;;;;11.88;6.45;;;;;;;;;;12845322;19;20409;-68
2023/01/10 04:03:22;;;;;;;12.02;6.50;;;;;;;;;;12848150;19;20386;-67
2023/01/10 04:07:41;;;;;;;8.13;5.00;;;;;;;;;;12847858;19;20464;-67
2023/01/10 04:11:58;;;;;;;7.10;4.30;;;;;;;;;;12847134;19;20070;-66
2023/01/10 04:16:16;;;;;;;6.83;3.90;;;;;;;;;;12845049;19;20306;-67
2023/01/10 04:20:34;;;;;;;7.23;4.50;;;;;;;;;;12846768;19;20776;-66
2023/01/10 04:24:52;;;;;;;6.97;4.60;;;;;;;;;;12846927;19;20344;-65
2023/01/10 04:29:10;;;;;;;8.82;3.67;;;;;;;;;;12845060;19;20023;-66
2023/01/10 04:33:28;;;;;;;6.97;2.95;;;;;;;;;;12846279;19;20379;-66
2023/01/10 04:37:45;;;;;;;10.10;3.57;;;;;;;;;;12845739;19;20463;-67
2023/01/10 04:42:03;;;;;;;4.38;2.58;;;;;;;;;;12845093;19;20584;-66
2023/01/10 04:46:21;;;;;;;3.03;1.73;;;;;;;;;;12845188;19;20368;-66
2023/01/10 04:50:38;;;;;;;4.88;2.30;;;;;;;;;;12845403;19;20014;-65
2023/01/10 04:54:56;;;;;;;2.20;1.80;;;;;;;;;;12845489;19;20414;-66
2023/01/10 04:59:14;;;;;;;3.13;1.98;;;;;;;;;;12843013;19;20482;-65
2023/01/10 05:03:32;;;;;;;5.35;2.85;;;;;;;;;;12845664;19;20485;-68
2023/01/10 05:07:50;;;;;;;2.97;2.10;;;;;;;;;;12844141;19;20499;-66
2023/01/10 05:12:08;;;;;;;4.72;1.95;;;;;;;;;;12842982;19;20501;-66
2023/01/10 05:16:26;;;;;;;4.97;1.73;;;;;;;;;;12843557;19;20359;-67
2023/01/10 05:20:44;;;;;;;3.03;1.63;;;;;;;;;;12844020;19;20532;-66
2023/01/10 05:25:01;;;;;;;3.00;0.90;;;;;;;;;;12843477;19;20473;-66
2023/01/10 05:29:19;;;;;;;2.60;1.75;;;;;;;;;;12840914;19;20411;-66
2023/01/10 05:33:37;;;;;;;5.30;2.43;;;;;;;;;;12843020;19;20379;-68
2023/01/10 05:37:55;;;;;;;3.20;2.20;;;;;;;;;;12841008;19;20378;-66
2023/01/10 05:42:13;;;;;;;4.53;1.80;;;;;;;;;;12841923;19;20335;-66
2023/01/10 05:46:30;;;;;;;2.77;2.03;;;;;;;;;;12841652;19;20494;-65
2023/01/10 05:50:49;;;;;;;4.53;1.77;;;;;;;;;;12842265;19;20111;-66
2023/01/10 05:55:07;;;;;;;5.43;2.72;;;;;;;;;;12841374;19;20444;-67
2023/01/10 05:59:25;;;;;;;2.33;1.50;;;;;;;;;;12841779;19;20384;-66
2023/01/10 06:03:44;;;;;;;4.75;1.83;;;;;;;;;;12841495;19;20363;-65
2023/01/10 06:08:03;;;;;;;3.88;1.70;;;;;;;;;;12840581;19;20453;-65
2023/01/10 06:12:21;;;;;;;4.93;2.03;;;;;;;;;;12838861;19;20379;-68
2023/01/10 06:16:40;;;;;;;6.30;2.23;;;;;;;;;;12838137;19;20328;-66
2023/01/10 06:20:58;;;;;;;10.25;4.93;;;;;;;;;;12840481;19;20376;-66
2023/01/10 06:25:16;;;;;;;13.57;6.77;;;;;;;;;;12839925;19;20371;-67
2023/01/10 06:29:33;;;;;;;15.05;7.28;;;;;;;;;;12840016;19;20468;-66
2023/01/10 06:33:51;;;;;;;10.83;5.97;;;;;;;;;;12839865;19;20396;-66
2023/01/10 06:38:09;;;;;;;4.97;3.20;;;;;;;;;;12838592;19;20299;-66
2023/01/10 06:42:27;;;;;;;10.45;5.70;;;;;;;;;;12839759;19;20437;-67
2023/01/10 06:46:45;;;;;;;9.37;6.10;;;;;;;;;;12838533;19;20365;-66
2023/01/10 06:51:05;;;;;;;9.23;3.70;;;;;;;;;;12838876;19;20343;-67
2023/01/10 06:55:23;;;;;;;5.88;3.80;;;;;;;;;;12837199;19;20621;-66
2023/01/10 06:59:41;;;;;;;10.95;4.15;;;;;;;;;;12839166;19;20098;-67
2023/01/10 07:03:59;;;;;;;13.40;8.23;;;;;;;;;;12838456;19;20353;-66
2023/01/10 07:08:16;;;;;;;13.98;7.80;;;;;;;;;;12837324;19;20414;-65
2023/01/10 07:12:34;;;;;;;22.90;8.43;;;;;;;;;;12838015;19;20395;-67
2023/01/10 07:16:52;;;;;;;22.57;9.33;;;;;;;;;;12812257;19;20373;-66
2023/01/10 07:21:10;;;;;;;24.10;9.50;;;;;;;;;;12836598;19;20564;-66
2023/01/10 07:25:29;;;;;;;;;;;;;;;;;;12836881;19;20375;-67
2023/01/10 07:29:46;;;;;;;24.63;11.82;;;;;;;;;;12838244;19;20279;-66
2023/01/10 07:34:04;;;;;;;17.13;8.47;;;;;;;;;;12836579;19;20485;-66
2023/01/10 07:38:22;;;;;;;17.05;7.28;;;;;;;;;;12834985;19;20094;-66
2023/01/10 07:42:40;;;;;;;21.17;11.82;;;;;;;;;;12831545;19;20473;-67
2023/01/10 07:46:57;;;;;;;20.40;8.65;;;;;;;;;;12835074;19;20392;-66
2023/01/10 07:51:15;;;;;;;14.05;8.43;;;;;;;;;;12831827;19;20375;-65
2023/01/10 07:55:37;;;;;;;15.97;8.33;;;;;;;;;;12835175;19;20085;-65
2023/01/10 07:59:55;;;;;;;15.80;8.50;;;;;;;;;;12835575;19;20093;-67
2023/01/10 08:04:13;;;;;;;19.17;9.00;;;;;;;;;;12833921;19;20482;-68
2023/01/10 08:08:32;;;;;;;13.75;7.20;;;;;;;;;;12832790;19;20314;-65
2023/01/10 08:12:51;;;;;;;10.98;6.82;;;;;;;;;;12834359;19;20425;-66
2023/01/10 08:17:09;;;;;;;17.95;9.68;;;;;;;;;;12834035;19;20022;-66
2023/01/10 08:21:26;;;;;;;17.77;8.00;;;;;;;;;;12834056;19;20350;-66
2023/01/10 08:25:44;;;;;;;31.05;18.42;;;;;;;;;;12834066;19;20464;-66
2023/01/10 08:30:04;;;;;;;26.25;15.40;;;;;;;;;;12832711;19;20360;-65
2023/01/10 08:34:22;;;;;;;18.23;11.05;;;;;;;;;;12835560;19;20015;-66
2023/01/10 08:38:40;;;;;;;15.60;8.23;;;;;;;;;;12844853;19;20422;-66
2023/01/10 08:43:01;;;;;;;9.73;5.13;;;;;;;;;;12845813;19;20527;-67
2023/01/10 08:47:18;;;;;;;12.80;6.18;;;;;;;;;;12840632;19;20801;-65
2023/01/10 08:51:36;;;;;;;8.60;4.97;;;;;;;;;;12842931;19;20502;-66
2023/01/10 08:55:54;;;;;;;7.18;4.70;;;;;;;;;;12845785;19;20433;-66
2023/01/10 09:00:12;;;;;;;6.80;4.00;;;;;;;;;;12843888;19;20370;-67
2023/01/10 09:04:30;;;;;;;9.77;4.75;;;;;;;;;;12847555;19;20030;-66
2023/01/10 09:08:49;;;;;;;8.07;4.70;;;;;;;;;;12844963;19;20017;-66
2023/01/10 09:13:08;;;;;;;5.15;3.42;;;;;;;;;;12843868;19;20361;-65
2023/01/10 09:17:26;;;;;;;6.72;3.55;;;;;;;;;;12843552;19;20306;-67
2023/01/10 09:21:43;;;;;;;7.17;4.47;;;;;;;;;;12841699;19;20513;-66
2023/01/10 09:26:02;;;;;;;4.57;2.50;;;;;;;;;;12843759;19;20364;-67
2023/01/10 09:30:19;;;;;;;;;;;;;;;;;;12843401;19;20335;-67
2023/01/10 09:34:37;;;;;;;3.07;2.00;;;;;;;;;;12843245;19;20243;-66
2023/01/10 09:38:55;;;;;;;3.60;2.10;;;;;;;;;;12842531;19;20461;-67
2023/01/10 09:43:53;;;;;;;16.17;8.97;;;;;;;;;;12841477;19;20486;-67
2023/01/10 09:48:40;;;;;;;32.00;16.52;;;;;;;;;;12839028;19;20477;-68
2023/01/10 09:53:23;;;;;;;7.57;4.00;;;;;;;;;;12840729;19;20430;-66
2023/01/10 09:57:41;;;;;;;16.30;7.03;;;;;;;;;;12840764;19;20351;-67
2023/01/10 10:02:15;;;;;;;4.40;1.98;;;;;;;;;;12841545;19;20468;-70
2023/01/10 10:06:33;;;;;;;6.03;2.85;;;;;;;;;;12839428;19;20638;-67
2023/01/10 10:11:24;;;;;;;10.07;4.50;;;;;;;;;;12841877;19;20368;-66
2023/01/10 10:16:01;;;;;;;32.25;13.05;;;;;;;;;;12840485;19;20422;-67
2023/01/10 10:20:52;;;;;;;28.08;11.02;;;;;;;;;;12838365;19;20376;-67
2023/01/10 10:26:10;;;;;;;16.17;6.18;;;;;;;;;;12837596;19;20014;-67
2023/01/10 10:30:52;;;;;;;21.97;10.27;;;;;;;;;;12839799;19;20407;-68
2023/01/10 10:35:36;;;;;;;12.45;6.68;;;;;;;;;;12836249;19;20018;-66
2023/01/10 10:39:57;;;;;;;19.73;7.43;;;;;;;;;;12838773;19;20350;-66
2023/01/10 10:44:53;;;;;;;16.85;6.97;;;;;;;;;;12836524;19;20363;-66
2023/01/10 10:49:48;;;;;;;14.57;6.70;;;;;;;;;;12834031;19;20469;-66
2023/01/10 10:54:10;;;;;;;20.65;9.30;;;;;;;;;;12836785;19;20376;-67
2023/01/10 10:58:30;;;;;;;24.90;11.30;;;;;;;;;;12836437;19;20006;-66
2023/01/10 11:03:03;;;;;;;16.65;9.77;;;;;;;;;;12838569;19;20472;-67
2023/01/10 11:07:21;;;;;;;16.10;8.63;;;;;;;;;;12838663;19;20440;-66
2023/01/10 11:11:46;;;;;;;14.27;8.70;;;;;;;;;;12837325;19;20310;-66
2023/01/10 11:16:05;;;;;;;15.85;9.85;;;;;;;;;;12837957;19;20433;-67
2023/01/10 11:20:23;;;;;;;14.10;9.23;;;;;;;;;;12838030;19;20751;-66
2023/01/10 11:24:55;;;;;;;15.93;9.63;;;;;;;;;;12837577;19;20437;-66
2023/01/10 11:29:18;;;;;;;19.90;8.55;;;;;;;;;;12835927;19;20733;-66
2023/01/10 11:33:38;;;;;;;19.65;11.90;;;;;;;;;;12835055;19;20015;-66
2023/01/10 11:38:20;;;;;;;23.52;13.57;;;;;;;;;;12836879;19;20448;-66
2023/01/10 11:42:38;;;;;;;38.70;22.30;;;;;;;;;;12836722;19;20437;-66
2023/01/10 11:47:01;;;;;;;25.63;13.47;;;;;;;;;;12835121;19;20360;-65
2023/01/10 11:51:27;;;;;;;18.42;9.95;;;;;;;;;;12836635;19;20011;-68
2023/01/10 11:55:47;;;;;;;15.02;7.40;;;;;;;;;;12833603;19;20378;-66
2023/01/10 12:00:08;;;;;;;19.08;9.95;;;;;;;;;;12832532;19;20437;-67
2023/01/10 12:04:30;;;;;;;66.78;20.58;;;;;;;;;;12834560;19;20425;-66
2023/01/10 12:08:49;;;;;;;33.13;15.05;;;;;;;;;;12839470;19;20469;-65
2023/01/10 12:13:14;;;;;;;32.80;15.52;;;;;;;;;;12844504;19;20306;-68
2023/01/10 12:17:36;;;;;;;31.55;13.63;;;;;;;;;;12846121;19;20315;-66
2023/01/10 12:22:01;;;;;;;16.60;8.52;;;;;;;;;;12845429;19;20071;-66
2023/01/10 12:26:20;;;;;;;21.77;11.90;;;;;;;;;;12844326;19;20458;-66
2023/01/10 12:30:43;;;;;;;31.10;16.05;;;;;;;;;;12849257;19;20298;-67
2023/01/10 12:35:09;;;;;;;18.05;9.68;;;;;;;;;;12845029;19;20335;-66
2023/01/10 12:39:37;;;;;;;17.40;9.75;;;;;;;;;;12845432;19;20440;-66
2023/01/10 12:44:11;;;;;;;;;;;;;;;;;;12843980;19;20631;-66
2023/01/10 12:48:51;;;;;;;16.13;8.38;;;;;;;;;;12846414;19;19916;-67
2023/01/10 12:53:42;;;;;;;10.52;6.00;;;;;;;;;;12337035;19;10001029;-66
2023/01/10 12:58:04;;;;;;;12.90;6.28;;;;;;;;;;12844138;19;20769;-66
2023/01/10 13:02:25;;;;;;;10.90;6.40;;;;;;;;;;12842619;19;20484;-67
2023/01/10 13:06:43;;;;;;;12.27;6.90;;;;;;;;;;12843373;19;20444;-66
2023/01/10 13:11:04;;;;;;;10.65;6.75;;;;;;;;;;12844829;19;20445;-66
2023/01/10 13:15:35;;;;;;;9.32;5.00;;;;;;;;;;12843324;19;20458;-66
2023/01/10 13:20:15;;;;;;;15.85;5.72;;;;;;;;;;12844440;19;20319;-65
2023/01/10 13:24:33;;;;;;;14.10;8.27;;;;;;;;;;12841477;19;20442;-66
2023/01/10 13:28:59;;;;;;;9.33;5.73;;;;;;;;;;12844340;19;20482;-66
2023/01/10 13:33:48;;;;;;;9.65;5.82;;;;;;;;;;12840525;19;20532;-66
2023/01/10 13:38:19;;;;;;;16.05;11.88;;;;;;;;;;12840617;19;20302;-66
2023/01/10 13:47:39;;;;;;;21.17;15.43;;;;;;;;;;12841261;19;20306;-69
2023/01/10 13:52:27;;;;;;;35.20;15.73;;;;;;;;;;12841922;19;20473;-68
2023/01/10 13:56:45;;;;;;;30.70;15.38;;;;;;;;;;12834800;19;20572;-67
2023/01/10 14:05:47;;;;;;;23.25;12.75;;;;;;;;;;12841370;19;20344;-66
2023/01/10 14:10:09;;;;;;;17.60;9.57;;;;;;;;;;12838544;19;20429;-67
2023/01/10 14:14:39;;;;;;;17.35;9.05;;;;;;;;;;12838981;19;20362;-66
2023/01/10 14:18:58;;;;;;;10.57;6.85;;;;;;;;;;12839572;19;20469;-67
2023/01/10 14:23:20;;;;;;;15.52;9.63;;;;;;;;;;12837847;19;20348;-70
2023/01/10 14:27:48;;;;;;;13.15;7.93;;;;;;;;;;12840594;19;20434;-66
2023/01/10 14:32:26;;;;;;;12.70;7.67;;;;;;;;;;12834830;19;20430;-67
2023/01/10 14:36:54;;;;;;;24.33;12.82;;;;;;;;;;12836871;19;20532;-66
2023/01/10 14:41:21;;;;;;;35.78;20.50;;;;;;;;;;12838639;19;20330;-66
2023/01/10 14:46:01;;;;;;;15.15;9.43;;;;;;;;;;12836403;19;20444;-66
2023/01/10 14:50:31;;;;;;;14.70;7.68;;;;;;;;;;12835914;19;20021;-68
2023/01/10 14:55:08;;;;;;;8.40;5.63;;;;;;;;;;12838911;19;20437;-66
2023/01/10 14:59:30;;;;;;;8.18;5.72;;;;;;;;;;12837694;19;20430;-66
2023/01/10 15:03:48;;;;;;;14.43;8.98;;;;;;;;;;12835707;19;20342;-68
2023/01/10 15:08:25;;;;;;;20.42;10.98;;;;;;;;;;12836470;19;20395;-68
2023/01/10 15:12:43;;;;;;;19.45;11.52;;;;;;;;;;12837233;19;20544;-66
2023/01/10 15:17:05;;;;;;;15.98;10.65;;;;;;;;;;12836710;19;20010;-66
2023/01/10 15:21:24;;;;;;;25.45;15.05;;;;;;;;;;12834535;19;20489;-66
2023/01/10 15:25:43;;;;;;;13.82;7.05;;;;;;;;;;12834624;19;20015;-66
2023/01/10 15:30:00;;;;;;;14.43;8.70;;;;;;;;;;12834573;19;20370;-67
2023/01/10 15:34:22;;;;;;;15.23;8.35;;;;;;;;;;12836587;19;20319;-67
2023/01/10 15:38:45;;;;;;;10.98;7.20;;;;;;;;;;12813291;19;20485;-66
2023/01/10 15:43:33;;;;;;;29.67;14.93;;;;;;;;;;12833316;19;20373;-66
2023/01/10 15:47:53;;;;;;;24.92;14.48;;;;;;;;;;12846902;19;20449;-67
2023/01/10 15:52:29;;;;;;;17.23;9.38;;;;;;;;;;12845723;19;20393;-68
2023/01/10 15:56:59;;;;;;;20.50;11.63;;;;;;;;;;12846127;19;20367;-66
2023/01/10 16:01:17;;;;;;;41.55;18.20;;;;;;;;;;12845431;19;20318;-68
2023/01/10 16:05:35;;;;;;;29.90;16.57;;;;;;;;;;12847569;19;20002;-66
2023/01/10 16:10:06;;;;;;;25.80;14.70;;;;;;;;;;12845255;19;20544;-66
2023/01/10 16:14:24;;;;;;;22.70;12.98;;;;;;;;;;12846958;19;20454;-68
2023/01/10 16:18:42;;;;;;;34.13;15.65;;;;;;;;;;12846920;19;20430;-66
2023/01/10 16:23:02;;;;;;;33.53;15.73;;;;;;;;;;12845401;19;20310;-66
2023/01/10 16:27:20;;;;;;;21.25;12.32;;;;;;;;;;12844658;19;20011;-66
2023/01/10 16:31:38;;;;;;;32.40;16.15;;;;;;;;;;12844567;19;20430;-67
2023/01/10 16:35:58;;;;;;;20.08;10.20;;;;;;;;;;12843976;19;20461;-67
2023/01/10 16:40:23;;;;;;;22.02;12.65;;;;;;;;;;12842121;19;20357;-67
2023/01/10 16:44:41;;;;;;;28.58;14.93;;;;;;;;;;12843131;19;20106;-67
2023/01/10 16:48:59;;;;;;;20.17;10.97;;;;;;;;;;12842620;19;20437;-68
2023/01/10 16:53:19;;;;;;;16.67;8.98;;;;;;;;;;12845807;19;20457;-69
2023/01/10 16:57:36;;;;;;;22.73;10.20;;;;;;;;;;12841760;19;20421;-66
2023/01/10 17:01:57;;;;;;;15.33;11.33;;;;;;;;;;12843884;19;20413;-66
2023/01/10 17:06:15;;;;;;;23.95;12.68;;;;;;;;;;12842841;19;20336;-66
2023/01/10 17:10:35;;;;;;;21.23;13.93;;;;;;;;;;12844183;19;20349;-67
2023/01/10 17:14:52;;;;;;;25.88;15.65;;;;;;;;;;12843395;19;20433;-66
2023/01/10 17:19:10;;;;;;;21.08;12.77;;;;;;;;;;12842698;19;20405;-67
2023/01/10 17:23:28;;;;;;;19.80;12.93;;;;;;;;;;12843568;19;20050;-66
2023/01/10 17:27:46;;;;;;;19.80;12.30;;;;;;;;;;12844510;19;20638;-67
2023/01/10 17:32:04;;;;;;;18.90;11.20;;;;;;;;;;12842391;19;20318;-67
2023/01/10 17:36:27;;;;;;;22.77;11.68;;;;;;;;;;12842556;19;20469;-66
2023/01/10 17:40:46;;;;;;;18.35;9.98;;;;;;;;;;12843762;19;20003;-67
2023/01/10 17:45:07;;;;;;;34.88;14.98;;;;;;;;;;12840426;19;20318;-67
2023/01/10 17:49:25;;;;;;;40.53;18.35;;;;;;;;;;12841643;19;20434;-66
2023/01/10 17:53:43;;;;;;;26.98;14.57;;;;;;;;;;12841665;19;19994;-68
2023/01/10 17:58:04;;;;;;;34.95;16.95;;;;;;;;;;12839975;19;20433;-66
2023/01/10 18:02:22;;;;;;;28.92;17.20;;;;;;;;;;12840561;19;20031;-67
2023/01/10 18:06:40;;;;;;;31.13;15.95;;;;;;;;;;12838052;19;20305;-67
2023/01/10 18:10:59;;;;;;;22.77;13.17;;;;;;;;;;12840558;19;20395;-66
2023/01/10 18:15:17;;;;;;;23.83;13.88;;;;;;;;;;12838015;19;20434;-68
2023/01/10 18:19:35;;;;;;;26.45;14.43;;;;;;;;;;12837142;19;20014;-66
2023/01/10 18:23:58;;;;;;;28.85;15.63;;;;;;;;;;12839345;19;20087;-66
2023/01/10 18:28:15;;;;;;;56.42;25.42;;;;;;;;;;12837971;19;20311;-66
2023/01/10 18:32:36;;;;;;;36.15;18.35;;;;;;;;;;12839080;19;20007;-66
2023/01/10 18:36:53;;;;;;;33.23;16.70;;;;;;;;;;12838169;19;20426;-66
2023/01/10 18:41:13;;;;;;;54.67;26.43;;;;;;;;;;12837705;19;20442;-66
2023/01/10 18:45:31;;;;;;;50.55;23.48;;;;;;;;;;12840424;19;20428;-66
2023/01/10 18:49:49;;;;;;;32.15;18.23;;;;;;;;;;12838496;19;20286;-66
2023/01/10 18:54:07;;;;;;;28.65;16.08;;;;;;;;;;12835693;19;20443;-68
2023/01/10 18:58:28;;;;;;;38.75;22.73;;;;;;;;;;12836477;19;20314;-66
2023/01/10 19:02:46;;;;;;;44.95;21.48;;;;;;;;;;12835887;19;20446;-67
2023/01/10 19:07:04;;;;;;;24.23;14.00;;;;;;;;;;12836616;19;20354;-66
2023/01/10 19:11:22;;;;;;;26.73;13.53;;;;;;;;;;12836291;19;20310;-68
2023/01/10 19:15:40;;;;;;;26.00;13.70;;;;;;;;;;12836689;19;20302;-66
2023/01/10 19:19:57;;;;;;;21.70;12.82;;;;;;;;;;12833680;19;20725;-67
2023/01/10 19:24:26;;;;;;;22.65;11.80;;;;;;;;;;12833367;19;20456;-68
2023/01/10 19:28:44;;;;;;;36.83;17.35;;;;;;;;;;12835834;19;20019;-67
2023/01/10 19:33:02;;;;;;;45.53;21.70;;;;;;;;;;12835921;19;20441;-68
2023/01/10 19:37:20;;;;;;;24.95;14.93;;;;;;;;;;12834033;19;20434;-69
2023/01/10 19:41:38;;;;;;;26.90;15.30;;;;;;;;;;12833631;19;20379;-67
2023/01/10 19:45:57;;;;;;;24.92;14.40;;;;;;;;;;12833864;19;20465;-67
2023/01/10 19:50:15;;;;;;;35.30;19.05;;;;;;;;;;12834584;19;20458;-68
2023/01/10 19:54:33;;;;;;;28.00;13.30;;;;;;;;;;12834308;19;20314;-67
2023/01/10 19:58:53;;;;;;;20.97;12.63;;;;;;;;;;12835228;19;20441;-68
2023/01/10 20:03:11;;;;;;;31.58;14.10;;;;;;;;;;12834339;19;20341;-66
2023/01/10 20:07:30;;;;;;;23.80;12.85;;;;;;;;;;12834630;19;20033;-68
2023/01/10 20:11:48;;;;;;;28.33;13.87;;;;;;;;;;12836217;19;20476;-66
2023/01/10 20:16:06;;;;;;;22.87;11.63;;;;;;;;;;12833599;19;20450;-66
2023/01/10 20:20:23;;;;;;;32.13;14.05;;;;;;;;;;12834277;19;20912;-66
2023/01/10 20:24:41;;;;;;;36.30;14.63;;;;;;;;;;12833905;19;20755;-67
2023/01/10 20:29:01;;;;;;;21.33;11.63;;;;;;;;;;12834176;19;20010;-67
2023/01/10 20:33:25;;;;;;;24.58;11.85;;;;;;;;;;12844133;19;20322;-66
2023/01/10 20:37:43;;;;;;;22.02;11.55;;;;;;;;;;12846333;19;20416;-66
2023/01/10 20:42:00;;;;;;;35.47;15.57;;;;;;;;;;12843903;19;20452;-67
2023/01/10 20:46:28;;;;;;;61.17;26.57;;;;;;;;;;12842330;19;20370;-66
2023/01/10 20:50:46;;;;;;;31.48;16.00;;;;;;;;;;12846281;19;20437;-66
2023/01/10 20:55:04;;;;;;;31.02;16.80;;;;;;;;;;12842907;19;20015;-67
2023/01/10 20:59:22;;;;;;;48.35;23.85;;;;;;;;;;12844052;19;20433;-67
2023/01/10 21:03:44;;;;;;;33.08;18.15;;;;;;;;;;12843530;19;20448;-66
2023/01/10 21:08:02;;;;;;;27.85;15.57;;;;;;;;;;12842067;19;20299;-68
2023/01/10 21:12:20;;;;;;;32.53;14.73;;;;;;;;;;12844183;19;20494;-68
2023/01/10 21:16:40;;;;;;;25.42;14.90;;;;;;;;;;12841342;19;20011;-66
2023/01/10 21:20:58;;;;;;;36.47;21.57;;;;;;;;;;12844014;19;20465;-68
2023/01/10 21:25:16;;;;;;;;;;;;;;;;;;12841265;19;20335;-66
2023/01/10 21:29:34;;;;;;;24.20;13.05;;;;;;;;;;12840999;19;20255;-66
2023/01/10 21:33:52;;;;;;;19.73;11.40;;;;;;;;;;12843155;19;20497;-67
2023/01/10 21:38:10;;;;;;;22.73;12.82;;;;;;;;;;12841268;19;20349;-66
2023/01/10 21:42:34;;;;;;;26.53;14.90;;;;;;;;;;12843228;19;20413;-65
2023/01/10 21:46:51;;;;;;;23.38;13.52;;;;;;;;;;12840692;19;20014;-66
2023/01/10 21:51:09;;;;;;;33.17;18.40;;;;;;;;;;12841428;19;20449;-66
2023/01/10 21:55:27;;;;;;;37.03;20.23;;;;;;;;;;12841411;19;20310;-67
2023/01/10 21:59:45;;;;;;;47.17;25.83;;;;;;;;;;12839102;19;20437;-66
2023/01/10 22:04:03;;;;;;;56.20;31.38;;;;;;;;;;12841548;19;20346;-67
2023/01/10 22:08:22;;;;;;;74.50;34.55;;;;;;;;;;12839876;19;20049;-66
2023/01/10 22:12:40;;;;;;;63.15;30.10;;;;;;;;;;12839643;19;20477;-66
2023/01/10 22:16:58;;;;;;;47.17;26.07;;;;;;;;;;12841376;19;20421;-66
2023/01/10 22:21:18;;;;;;;39.03;18.85;;;;;;;;;;12836663;19;20401;-66
2023/01/10 22:25:36;;;;;;;40.10;19.05;;;;;;;;;;12840551;19;20343;-66
2023/01/10 22:29:54;;;;;;;49.83;24.90;;;;;;;;;;12839287;19;20437;-66
2023/01/10 22:34:43;;;;;;;62.50;29.10;;;;;;;;;;12836874;19;20530;-67
2023/01/10 22:39:19;;;;;;;46.13;24.00;;;;;;;;;;12840172;19;20015;-68
2023/01/10 22:43:56;;;;;;;42.72;22.17;;;;;;;;;;12841081;19;20343;-66
2023/01/10 22:48:37;;;;;;;39.95;19.88;;;;;;;;;;12840094;19;20421;-67
2023/01/10 22:53:07;;;;;;;36.67;19.48;;;;;;;;;;12839522;19;20650;-66
2023/01/10 22:57:43;;;;;;;36.75;19.15;;;;;;;;;;12836484;19;20376;-67
2023/01/10 23:02:19;;;;;;;36.03;19.00;;;;;;;;;;12839783;19;20438;-67
2023/01/10 23:06:55;;;;;;;33.85;18.30;;;;;;;;;;12837772;19;20461;-66
2023/01/10 23:11:31;;;;;;;35.80;18.20;;;;;;;;;;12839615;19;20410;-66
2023/01/10 23:16:14;;;;;;;28.77;16.38;;;;;;;;;;12839925;19;20349;-66
2023/01/10 23:20:47;;;;;;;30.77;16.80;;;;;;;;;;12839527;19;20006;-66
2023/01/10 23:25:19;;;;;;;37.05;18.15;;;;;;;;;;12838761;19;20429;-69
2023/01/10 23:29:55;;;;;;;30.90;15.55;;;;;;;;;;12838810;19;20010;-66
2023/01/10 23:34:31;;;;;;;28.55;13.93;;;;;;;;;;12839431;19;20314;-66
2023/01/10 23:39:08;;;;;;;32.67;15.85;;;;;;;;;;12838597;19;20482;-66
2023/01/10 23:43:44;;;;;;;41.83;16.92;;;;;;;;;;12838810;19;20474;-67
2023/01/10 23:48:20;;;;;;;36.92;17.38;;;;;;;;;;12834477;19;20039;-69
2023/01/10 23:52:56;;;;;;;38.35;18.70;;;;;;;;;;12837823;19;20505;-65
2023/01/10 23:57:33;;;;;;;34.13;15.32;;;;;;;;;;12837052;19;20465;-66
